sensor_id;sensor_type;location;lat;lon;timestamp;P1;durP1;ratioP1;P2;durP2;ratioP2
7571;SDS011;3827;49.928;8.548;2022-08-14T00:01:05;8.88;;;7.95;;
7571;SDS011;3827;49.928;8.548;2022-08-14T00:03:32;7.03;;;6.30;;
7571;SDS011;3827;49.928;8.548;2022-08-14T00:06:00;7.57;;;6.40;;
7571;SDS011;3827;49.928;8.548;2022-08-14T00:08:28;7.00;;;6.10;;
7571;SDS011;3827;49.928;8.548;2022-08-14T00:10:55;5.57;;;5.07;;
7571;SDS011;3827;49.928;8.548;2022-08-14T00:13:23;5.55;;;5.03;;
7571;SDS011;3827;49.928;8.548;2022-08-14T00:15:53;6.70;;;4.78;;
7571;SDS011;3827;49.928;8.548;2022-08-14T00:18:24;4.95;;;4.50;;
7571;SDS011;3827;49.928;8.548;2022-08-14T00:20:52;4.80;;;4.28;;
7571;SDS011;3827;49.928;8.548;2022-08-14T00:23:19;5.45;;;4.90;;
7571;SDS011;3827;49.928;8.548;2022-08-14T00:25:47;5.55;;;4.93;;
7571;SDS011;3827;49.928;8.548;2022-08-14T00:28:16;5.00;;;4.60;;
7571;SDS011;3827;49.928;8.548;2022-08-14T00:30:46;4.78;;;4.38;;
7571;SDS011;3827;49.928;8.548;2022-08-14T00:33:13;4.80;;;4.40;;
7571;SDS011;3827;49.928;8.548;2022-08-14T00:35:41;4.80;;;4.40;;
7571;SDS011;3827;49.928;8.548;2022-08-14T00:38:08;4.82;;;4.43;;
7571;SDS011;3827;49.928;8.548;2022-08-14T00:40:35;5.05;;;4.45;;
7571;SDS011;3827;49.928;8.548;2022-08-14T00:43:02;4.68;;;4.28;;
7571;SDS011;3827;49.928;8.548;2022-08-14T00:45:29;4.85;;;4.43;;
7571;SDS011;3827;49.928;8.548;2022-08-14T00:47:56;4.50;;;4.15;;
7571;SDS011;3827;49.928;8.548;2022-08-14T00:50:23;4.80;;;4.50;;
7571;SDS011;3827;49.928;8.548;2022-08-14T00:52:53;4.97;;;4.57;;
7571;SDS011;3827;49.928;8.548;2022-08-14T00:55:20;4.90;;;4.38;;
7571;SDS011;3827;49.928;8.548;2022-08-14T00:57:47;5.00;;;4.60;;
7571;SDS011;3827;49.928;8.548;2022-08-14T01:00:35;4.45;;;4.15;;
7571;SDS011;3827;49.928;8.548;2022-08-14T01:03:02;4.50;;;4.20;;
7571;SDS011;3827;49.928;8.548;2022-08-14T01:05:29;4.38;;;4.07;;
7571;SDS011;3827;49.928;8.548;2022-08-14T01:07:59;4.75;;;4.45;;
7571;SDS011;3827;49.928;8.548;2022-08-14T01:10:28;4.80;;;4.40;;
7571;SDS011;3827;49.928;8.548;2022-08-14T01:13:09;4.57;;;4.28;;
7571;SDS011;3827;49.928;8.548;2022-08-14T01:15:37;5.80;;;4.88;;
7571;SDS011;3827;49.928;8.548;2022-08-14T01:18:04;5.13;;;4.63;;
7571;SDS011;3827;49.928;8.548;2022-08-14T01:20:49;5.00;;;4.47;;
7571;SDS011;3827;49.928;8.548;2022-08-14T01:23:29;4.70;;;4.40;;
7571;SDS011;3827;49.928;8.548;2022-08-14T01:25:57;5.47;;;4.97;;
7571;SDS011;3827;49.928;8.548;2022-08-14T01:28:24;5.30;;;4.90;;
7571;SDS011;3827;49.928;8.548;2022-08-14T01:30:51;5.28;;;4.90;;
7571;SDS011;3827;49.928;8.548;2022-08-14T01:33:20;5.38;;;4.97;;
7571;SDS011;3827;49.928;8.548;2022-08-14T01:35:47;5.40;;;5.00;;
7571;SDS011;3827;49.928;8.548;2022-08-14T01:38:14;5.70;;;5.30;;
7571;SDS011;3827;49.928;8.548;2022-08-14T01:40:44;5.65;;;5.15;;
7571;SDS011;3827;49.928;8.548;2022-08-14T01:43:14;5.53;;;5.13;;
7571;SDS011;3827;49.928;8.548;2022-08-14T01:45:41;5.90;;;5.43;;
7571;SDS011;3827;49.928;8.548;2022-08-14T01:48:10;5.57;;;5.07;;
7571;SDS011;3827;49.928;8.548;2022-08-14T01:50:37;5.72;;;5.22;;
7571;SDS011;3827;49.928;8.548;2022-08-14T01:53:05;5.27;;;4.87;;
7571;SDS011;3827;49.928;8.548;2022-08-14T01:55:33;5.85;;;5.43;;
7571;SDS011;3827;49.928;8.548;2022-08-14T01:58:02;5.93;;;5.43;;
7571;SDS011;3827;49.928;8.548;2022-08-14T02:00:29;5.80;;;5.30;;
7571;SDS011;3827;49.928;8.548;2022-08-14T02:02:58;6.13;;;5.72;;
7571;SDS011;3827;49.928;8.548;2022-08-14T02:05:25;5.87;;;5.47;;
7571;SDS011;3827;49.928;8.548;2022-08-14T02:07:55;6.65;;;6.05;;
7571;SDS011;3827;49.928;8.548;2022-08-14T02:10:22;6.78;;;6.20;;
7571;SDS011;3827;49.928;8.548;2022-08-14T02:12:53;6.10;;;5.60;;
7571;SDS011;3827;49.928;8.548;2022-08-14T02:15:21;6.28;;;5.78;;
7571;SDS011;3827;49.928;8.548;2022-08-14T02:17:48;6.68;;;6.18;;
7571;SDS011;3827;49.928;8.548;2022-08-14T02:20:16;7.03;;;6.47;;
7571;SDS011;3827;49.928;8.548;2022-08-14T02:22:44;6.72;;;6.22;;
7571;SDS011;3827;49.928;8.548;2022-08-14T02:25:11;7.07;;;6.47;;
7571;SDS011;3827;49.928;8.548;2022-08-14T02:27:38;7.32;;;6.72;;
7571;SDS011;3827;49.928;8.548;2022-08-14T02:30:07;6.95;;;6.45;;
7571;SDS011;3827;49.928;8.548;2022-08-14T02:32:35;6.82;;;6.32;;
7571;SDS011;3827;49.928;8.548;2022-08-14T02:35:03;7.05;;;6.50;;
7571;SDS011;3827;49.928;8.548;2022-08-14T02:37:34;7.45;;;6.75;;
7571;SDS011;3827;49.928;8.548;2022-08-14T02:40:01;6.80;;;6.25;;
7571;SDS011;3827;49.928;8.548;2022-08-14T02:42:28;6.82;;;6.32;;
7571;SDS011;3827;49.928;8.548;2022-08-14T02:44:56;7.07;;;6.38;;
7571;SDS011;3827;49.928;8.548;2022-08-14T02:47:23;6.85;;;6.30;;
7571;SDS011;3827;49.928;8.548;2022-08-14T02:49:52;6.70;;;6.10;;
7571;SDS011;3827;49.928;8.548;2022-08-14T02:52:19;7.38;;;6.75;;
7571;SDS011;3827;49.928;8.548;2022-08-14T02:54:45;7.32;;;6.72;;
7571;SDS011;3827;49.928;8.548;2022-08-14T02:57:12;6.83;;;6.33;;
7571;SDS011;3827;49.928;8.548;2022-08-14T02:59:41;6.63;;;6.13;;
7571;SDS011;3827;49.928;8.548;2022-08-14T03:02:08;6.88;;;6.38;;
7571;SDS011;3827;49.928;8.548;2022-08-14T03:04:37;7.10;;;6.45;;
7571;SDS011;3827;49.928;8.548;2022-08-14T03:07:05;7.57;;;6.97;;
7571;SDS011;3827;49.928;8.548;2022-08-14T03:09:33;7.22;;;6.72;;
7571;SDS011;3827;49.928;8.548;2022-08-14T03:12:01;7.70;;;7.10;;
7571;SDS011;3827;49.928;8.548;2022-08-14T03:14:28;7.73;;;6.97;;
7571;SDS011;3827;49.928;8.548;2022-08-14T03:16:59;7.30;;;6.70;;
7571;SDS011;3827;49.928;8.548;2022-08-14T03:19:26;7.97;;;7.05;;
7571;SDS011;3827;49.928;8.548;2022-08-14T03:21:53;8.10;;;7.40;;
7571;SDS011;3827;49.928;8.548;2022-08-14T03:24:21;8.02;;;7.32;;
7571;SDS011;3827;49.928;8.548;2022-08-14T03:26:47;7.25;;;6.75;;
7571;SDS011;3827;49.928;8.548;2022-08-14T03:29:16;7.70;;;7.10;;
7571;SDS011;3827;49.928;8.548;2022-08-14T03:31:44;7.60;;;7.00;;
7571;SDS011;3827;49.928;8.548;2022-08-14T03:34:13;7.73;;;7.03;;
7571;SDS011;3827;49.928;8.548;2022-08-14T03:36:40;7.67;;;7.10;;
7571;SDS011;3827;49.928;8.548;2022-08-14T03:39:08;7.55;;;6.95;;
7571;SDS011;3827;49.928;8.548;2022-08-14T03:41:38;7.47;;;6.90;;
7571;SDS011;3827;49.928;8.548;2022-08-14T03:44:05;7.57;;;6.88;;
7571;SDS011;3827;49.928;8.548;2022-08-14T03:46:32;7.30;;;6.80;;
7571;SDS011;3827;49.928;8.548;2022-08-14T03:49:01;7.88;;;7.28;;
7571;SDS011;3827;49.928;8.548;2022-08-14T03:51:29;7.80;;;7.18;;
7571;SDS011;3827;49.928;8.548;2022-08-14T03:53:57;7.78;;;7.18;;
7571;SDS011;3827;49.928;8.548;2022-08-14T03:56:25;7.68;;;7.05;;
7571;SDS011;3827;49.928;8.548;2022-08-14T03:58:56;7.40;;;6.90;;
7571;SDS011;3827;49.928;8.548;2022-08-14T04:01:26;8.35;;;7.55;;
7571;SDS011;3827;49.928;8.548;2022-08-14T04:03:53;7.70;;;7.10;;
7571;SDS011;3827;49.928;8.548;2022-08-14T04:06:29;8.00;;;7.10;;
7571;SDS011;3827;49.928;8.548;2022-08-14T04:08:56;8.30;;;7.53;;
7571;SDS011;3827;49.928;8.548;2022-08-14T04:11:23;9.15;;;7.95;;
7571;SDS011;3827;49.928;8.548;2022-08-14T04:13:50;10.20;;;7.65;;
7571;SDS011;3827;49.928;8.548;2022-08-14T04:16:19;9.95;;;7.22;;
7571;SDS011;3827;49.928;8.548;2022-08-14T04:18:48;8.68;;;7.30;;
7571;SDS011;3827;49.928;8.548;2022-08-14T04:21:18;8.13;;;7.50;;
7571;SDS011;3827;49.928;8.548;2022-08-14T04:23:48;8.05;;;7.40;;
7571;SDS011;3827;49.928;8.548;2022-08-14T04:26:17;8.00;;;7.15;;
7571;SDS011;3827;49.928;8.548;2022-08-14T04:28:46;7.97;;;7.35;;
7571;SDS011;3827;49.928;8.548;2022-08-14T04:31:14;8.25;;;7.55;;
7571;SDS011;3827;49.928;8.548;2022-08-14T04:33:43;8.25;;;7.53;;
7571;SDS011;3827;49.928;8.548;2022-08-14T04:36:10;8.43;;;7.72;;
7571;SDS011;3827;49.928;8.548;2022-08-14T04:38:37;8.85;;;7.95;;
7571;SDS011;3827;49.928;8.548;2022-08-14T04:41:27;8.32;;;7.65;;
7571;SDS011;3827;49.928;8.548;2022-08-14T04:44:11;8.63;;;7.97;;
7571;SDS011;3827;49.928;8.548;2022-08-14T04:46:38;8.77;;;7.97;;
7571;SDS011;3827;49.928;8.548;2022-08-14T04:49:26;8.70;;;8.00;;
7571;SDS011;3827;49.928;8.548;2022-08-14T04:51:52;8.52;;;7.82;;
7571;SDS011;3827;49.928;8.548;2022-08-14T04:54:19;8.40;;;7.70;;
7571;SDS011;3827;49.928;8.548;2022-08-14T04:56:46;8.02;;;7.40;;
7571;SDS011;3827;49.928;8.548;2022-08-14T04:59:13;9.18;;;8.48;;
7571;SDS011;3827;49.928;8.548;2022-08-14T05:01:40;8.30;;;7.50;;
7571;SDS011;3827;49.928;8.548;2022-08-14T05:04:09;9.05;;;8.25;;
7571;SDS011;3827;49.928;8.548;2022-08-14T05:06:38;8.90;;;7.93;;
7571;SDS011;3827;49.928;8.548;2022-08-14T05:09:05;8.60;;;7.90;;
7571;SDS011;3827;49.928;8.548;2022-08-14T05:11:32;8.60;;;8.00;;
7571;SDS011;3827;49.928;8.548;2022-08-14T05:14:00;9.18;;;8.30;;
7571;SDS011;3827;49.928;8.548;2022-08-14T05:16:27;9.30;;;8.50;;
7571;SDS011;3827;49.928;8.548;2022-08-14T05:18:55;9.13;;;8.43;;
7571;SDS011;3827;49.928;8.548;2022-08-14T05:21:23;8.02;;;7.32;;
7571;SDS011;3827;49.928;8.548;2022-08-14T05:23:54;8.50;;;7.90;;
7571;SDS011;3827;49.928;8.548;2022-08-14T05:26:21;9.10;;;8.30;;
7571;SDS011;3827;49.928;8.548;2022-08-14T05:28:48;9.15;;;8.25;;
7571;SDS011;3827;49.928;8.548;2022-08-14T05:31:15;8.70;;;8.07;;
7571;SDS011;3827;49.928;8.548;2022-08-14T05:33:43;9.27;;;8.48;;
7571;SDS011;3827;49.928;8.548;2022-08-14T05:36:11;9.02;;;8.25;;
7571;SDS011;3827;49.928;8.548;2022-08-14T05:38:40;9.02;;;8.32;;
7571;SDS011;3827;49.928;8.548;2022-08-14T05:41:10;8.97;;;8.27;;
7571;SDS011;3827;49.928;8.548;2022-08-14T05:43:38;8.70;;;8.00;;
7571;SDS011;3827;49.928;8.548;2022-08-14T05:46:06;8.88;;;8.07;;
7571;SDS011;3827;49.928;8.548;2022-08-14T05:48:34;9.15;;;8.45;;
7571;SDS011;3827;49.928;8.548;2022-08-14T05:51:01;9.40;;;8.50;;
7571;SDS011;3827;49.928;8.548;2022-08-14T05:53:28;9.32;;;8.63;;
7571;SDS011;3827;49.928;8.548;2022-08-14T05:55:55;9.67;;;8.87;;
7571;SDS011;3827;49.928;8.548;2022-08-14T05:58:25;10.18;;;9.38;;
7571;SDS011;3827;49.928;8.548;2022-08-14T06:00:52;11.25;;;10.20;;
7571;SDS011;3827;49.928;8.548;2022-08-14T06:03:20;10.98;;;9.98;;
7571;SDS011;3827;49.928;8.548;2022-08-14T06:05:48;12.45;;;11.30;;
7571;SDS011;3827;49.928;8.548;2022-08-14T06:08:17;11.85;;;10.73;;
7571;SDS011;3827;49.928;8.548;2022-08-14T06:10:45;11.18;;;10.18;;
7571;SDS011;3827;49.928;8.548;2022-08-14T06:13:13;12.20;;;11.00;;
7571;SDS011;3827;49.928;8.548;2022-08-14T06:15:42;12.30;;;11.23;;
7571;SDS011;3827;49.928;8.548;2022-08-14T06:18:09;12.73;;;11.53;;
7571;SDS011;3827;49.928;8.548;2022-08-14T06:20:36;13.88;;;12.48;;
7571;SDS011;3827;49.928;8.548;2022-08-14T06:23:04;14.20;;;12.80;;
7571;SDS011;3827;49.928;8.548;2022-08-14T06:25:31;13.45;;;11.95;;
7571;SDS011;3827;49.928;8.548;2022-08-14T06:27:58;12.98;;;11.73;;
7571;SDS011;3827;49.928;8.548;2022-08-14T06:30:27;12.88;;;11.60;;
7571;SDS011;3827;49.928;8.548;2022-08-14T06:32:57;12.10;;;11.00;;
7571;SDS011;3827;49.928;8.548;2022-08-14T06:35:24;13.57;;;12.27;;
7571;SDS011;3827;49.928;8.548;2022-08-14T06:37:52;14.95;;;13.55;;
7571;SDS011;3827;49.928;8.548;2022-08-14T06:42:51;12.35;;;11.15;;
7571;SDS011;3827;49.928;8.548;2022-08-14T06:45:18;14.27;;;12.93;;
7571;SDS011;3827;49.928;8.548;2022-08-14T06:47:46;14.60;;;13.18;;
7571;SDS011;3827;49.928;8.548;2022-08-14T06:50:15;11.32;;;10.30;;
7571;SDS011;3827;49.928;8.548;2022-08-14T06:52:44;9.73;;;8.93;;
7571;SDS011;3827;49.928;8.548;2022-08-14T06:55:11;10.23;;;9.27;;
7571;SDS011;3827;49.928;8.548;2022-08-14T06:57:42;10.20;;;9.18;;
7571;SDS011;3827;49.928;8.548;2022-08-14T07:00:11;11.65;;;9.15;;
7571;SDS011;3827;49.928;8.548;2022-08-14T07:02:40;10.85;;;9.82;;
7571;SDS011;3827;49.928;8.548;2022-08-14T07:05:26;12.70;;;9.80;;
7571;SDS011;3827;49.928;8.548;2022-08-14T07:08:13;9.75;;;8.88;;
7571;SDS011;3827;49.928;8.548;2022-08-14T07:10:42;10.60;;;9.63;;
7571;SDS011;3827;49.928;8.548;2022-08-14T07:13:09;14.52;;;12.98;;
7571;SDS011;3827;49.928;8.548;2022-08-14T07:15:37;14.38;;;12.88;;
7571;SDS011;3827;49.928;8.548;2022-08-14T07:18:04;17.00;;;13.70;;
7571;SDS011;3827;49.928;8.548;2022-08-14T07:20:34;18.13;;;15.50;;
7571;SDS011;3827;49.928;8.548;2022-08-14T07:23:02;18.67;;;15.30;;
7571;SDS011;3827;49.928;8.548;2022-08-14T07:25:30;26.92;;;20.33;;
7571;SDS011;3827;49.928;8.548;2022-08-14T07:27:57;26.45;;;19.92;;
7571;SDS011;3827;49.928;8.548;2022-08-14T07:30:24;22.73;;;19.23;;
7571;SDS011;3827;49.928;8.548;2022-08-14T07:32:51;22.67;;;18.80;;
7571;SDS011;3827;49.928;8.548;2022-08-14T07:35:18;26.05;;;22.98;;
7571;SDS011;3827;49.928;8.548;2022-08-14T07:37:47;28.77;;;23.38;;
7571;SDS011;3827;49.928;8.548;2022-08-14T07:40:14;30.60;;;23.52;;
7571;SDS011;3827;49.928;8.548;2022-08-14T07:42:41;30.30;;;23.67;;
7571;SDS011;3827;49.928;8.548;2022-08-14T07:45:09;26.93;;;23.80;;
7571;SDS011;3827;49.928;8.548;2022-08-14T07:47:38;24.40;;;21.27;;
7571;SDS011;3827;49.928;8.548;2022-08-14T07:50:12;24.05;;;19.55;;
7571;SDS011;3827;49.928;8.548;2022-08-14T07:52:40;23.83;;;20.17;;
7571;SDS011;3827;49.928;8.548;2022-08-14T07:55:09;22.37;;;19.93;;
7571;SDS011;3827;49.928;8.548;2022-08-14T07:57:37;27.13;;;22.60;;
7571;SDS011;3827;49.928;8.548;2022-08-14T08:00:06;28.80;;;23.10;;
7571;SDS011;3827;49.928;8.548;2022-08-14T08:02:37;20.67;;;18.35;;
7571;SDS011;3827;49.928;8.548;2022-08-14T08:05:06;13.45;;;12.15;;
7571;SDS011;3827;49.928;8.548;2022-08-14T08:07:34;15.93;;;14.43;;
7571;SDS011;3827;49.928;8.548;2022-08-14T08:10:03;17.85;;;15.98;;
7571;SDS011;3827;49.928;8.548;2022-08-14T08:12:53;23.40;;;17.98;;
7571;SDS011;3827;49.928;8.548;2022-08-14T08:15:22;25.08;;;19.77;;
7571;SDS011;3827;49.928;8.548;2022-08-14T08:17:50;22.08;;;18.00;;
7571;SDS011;3827;49.928;8.548;2022-08-14T08:20:18;24.08;;;20.08;;
7571;SDS011;3827;49.928;8.548;2022-08-14T08:22:45;20.27;;;18.00;;
7571;SDS011;3827;49.928;8.548;2022-08-14T08:25:12;21.90;;;17.35;;
7571;SDS011;3827;49.928;8.548;2022-08-14T08:27:39;17.25;;;15.40;;
7571;SDS011;3827;49.928;8.548;2022-08-14T08:30:08;18.07;;;15.47;;
7571;SDS011;3827;49.928;8.548;2022-08-14T08:32:39;18.52;;;15.40;;
7571;SDS011;3827;49.928;8.548;2022-08-14T08:35:15;15.85;;;13.13;;
7571;SDS011;3827;49.928;8.548;2022-08-14T08:37:42;12.38;;;11.15;;
7571;SDS011;3827;49.928;8.548;2022-08-14T08:40:10;16.02;;;14.38;;
7571;SDS011;3827;49.928;8.548;2022-08-14T08:42:46;15.43;;;13.47;;
7571;SDS011;3827;49.928;8.548;2022-08-14T08:45:15;14.60;;;13.20;;
7571;SDS011;3827;49.928;8.548;2022-08-14T08:47:42;14.13;;;12.70;;
7571;SDS011;3827;49.928;8.548;2022-08-14T08:50:19;13.13;;;11.82;;
7571;SDS011;3827;49.928;8.548;2022-08-14T08:52:49;11.80;;;10.80;;
7571;SDS011;3827;49.928;8.548;2022-08-14T08:55:22;12.07;;;9.98;;
7571;SDS011;3827;49.928;8.548;2022-08-14T08:57:52;14.70;;;11.30;;
7571;SDS011;3827;49.928;8.548;2022-08-14T09:00:21;12.37;;;11.17;;
7571;SDS011;3827;49.928;8.548;2022-08-14T09:02:53;12.70;;;10.95;;
7571;SDS011;3827;49.928;8.548;2022-08-14T09:05:21;11.80;;;10.80;;
7571;SDS011;3827;49.928;8.548;2022-08-14T09:07:49;12.82;;;10.20;;
7571;SDS011;3827;49.928;8.548;2022-08-14T09:10:16;10.93;;;9.88;;
7571;SDS011;3827;49.928;8.548;2022-08-14T09:12:43;9.70;;;8.73;;
7571;SDS011;3827;49.928;8.548;2022-08-14T09:15:12;9.27;;;8.20;;
7571;SDS011;3827;49.928;8.548;2022-08-14T09:17:41;8.52;;;7.72;;
7571;SDS011;3827;49.928;8.548;2022-08-14T09:20:09;18.23;;;14.52;;
7571;SDS011;3827;49.928;8.548;2022-08-14T09:22:38;15.32;;;13.70;;
7571;SDS011;3827;49.928;8.548;2022-08-14T09:25:06;13.77;;;12.32;;
7571;SDS011;3827;49.928;8.548;2022-08-14T09:27:33;11.50;;;10.40;;
7571;SDS011;3827;49.928;8.548;2022-08-14T09:30:03;10.20;;;9.13;;
7571;SDS011;3827;49.928;8.548;2022-08-14T09:32:33;12.17;;;11.03;;
7571;SDS011;3827;49.928;8.548;2022-08-14T09:35:11;16.73;;;13.25;;
7571;SDS011;3827;49.928;8.548;2022-08-14T09:37:44;13.82;;;12.32;;
7571;SDS011;3827;49.928;8.548;2022-08-14T09:40:23;12.98;;;11.60;;
7571;SDS011;3827;49.928;8.548;2022-08-14T09:43:03;12.38;;;10.80;;
7571;SDS011;3827;49.928;8.548;2022-08-14T09:45:37;12.98;;;11.48;;
7571;SDS011;3827;49.928;8.548;2022-08-14T09:48:14;12.35;;;11.15;;
7571;SDS011;3827;49.928;8.548;2022-08-14T09:50:45;12.05;;;10.60;;
7571;SDS011;3827;49.928;8.548;2022-08-14T09:53:14;12.75;;;11.43;;
7571;SDS011;3827;49.928;8.548;2022-08-14T09:55:43;13.25;;;11.85;;
7571;SDS011;3827;49.928;8.548;2022-08-14T09:58:22;13.68;;;12.35;;
7571;SDS011;3827;49.928;8.548;2022-08-14T10:01:06;11.88;;;10.68;;
7571;SDS011;3827;49.928;8.548;2022-08-14T10:03:35;10.05;;;9.05;;
7571;SDS011;3827;49.928;8.548;2022-08-14T10:06:08;11.20;;;10.10;;
7571;SDS011;3827;49.928;8.548;2022-08-14T10:08:39;13.80;;;12.20;;
7571;SDS011;3827;49.928;8.548;2022-08-14T10:11:12;12.57;;;11.27;;
7571;SDS011;3827;49.928;8.548;2022-08-14T10:13:42;8.73;;;7.93;;
7571;SDS011;3827;49.928;8.548;2022-08-14T10:16:09;6.05;;;5.40;;
7571;SDS011;3827;49.928;8.548;2022-08-14T10:18:37;8.45;;;7.43;;
7571;SDS011;3827;49.928;8.548;2022-08-14T10:21:06;10.87;;;8.27;;
7571;SDS011;3827;49.928;8.548;2022-08-14T10:23:42;7.70;;;6.88;;
7571;SDS011;3827;49.928;8.548;2022-08-14T10:26:14;6.22;;;5.63;;
7571;SDS011;3827;49.928;8.548;2022-08-14T10:28:44;5.32;;;4.20;;
7571;SDS011;3827;49.928;8.548;2022-08-14T10:31:19;4.40;;;4.10;;
7571;SDS011;3827;49.928;8.548;2022-08-14T10:34:02;4.90;;;3.90;;
7571;SDS011;3827;49.928;8.548;2022-08-14T10:36:33;3.80;;;3.50;;
7571;SDS011;3827;49.928;8.548;2022-08-14T10:39:03;4.07;;;3.70;;
7571;SDS011;3827;49.928;8.548;2022-08-14T10:41:37;4.20;;;3.90;;
7571;SDS011;3827;49.928;8.548;2022-08-14T10:44:09;4.70;;;4.30;;
7571;SDS011;3827;49.928;8.548;2022-08-14T10:46:42;4.90;;;4.50;;
7571;SDS011;3827;49.928;8.548;2022-08-14T10:49:17;4.75;;;4.25;;
7571;SDS011;3827;49.928;8.548;2022-08-14T10:52:00;4.45;;;4.05;;
7571;SDS011;3827;49.928;8.548;2022-08-14T10:54:33;3.75;;;3.53;;
7571;SDS011;3827;49.928;8.548;2022-08-14T10:57:14;3.63;;;3.42;;
7571;SDS011;3827;49.928;8.548;2022-08-14T10:59:45;3.70;;;3.50;;
7571;SDS011;3827;49.928;8.548;2022-08-14T11:02:17;4.00;;;3.30;;
7571;SDS011;3827;49.928;8.548;2022-08-14T11:04:58;3.60;;;3.30;;
7571;SDS011;3827;49.928;8.548;2022-08-14T11:07:28;3.90;;;3.60;;
7571;SDS011;3827;49.928;8.548;2022-08-14T11:09:57;3.63;;;3.33;;
7571;SDS011;3827;49.928;8.548;2022-08-14T11:12:27;3.33;;;3.13;;
7571;SDS011;3827;49.928;8.548;2022-08-14T11:15:05;3.47;;;3.28;;
7571;SDS011;3827;49.928;8.548;2022-08-14T11:17:34;3.50;;;3.20;;
7571;SDS011;3827;49.928;8.548;2022-08-14T11:20:02;3.20;;;2.90;;
7571;SDS011;3827;49.928;8.548;2022-08-14T11:22:33;3.35;;;3.08;;
7571;SDS011;3827;49.928;8.548;2022-08-14T11:25:06;3.10;;;2.90;;
7571;SDS011;3827;49.928;8.548;2022-08-14T11:27:34;3.25;;;2.90;;
7571;SDS011;3827;49.928;8.548;2022-08-14T11:30:05;3.00;;;2.80;;
7571;SDS011;3827;49.928;8.548;2022-08-14T11:32:34;3.80;;;3.00;;
7571;SDS011;3827;49.928;8.548;2022-08-14T11:35:04;3.42;;;3.13;;
7571;SDS011;3827;49.928;8.548;2022-08-14T11:37:31;3.38;;;3.17;;
7571;SDS011;3827;49.928;8.548;2022-08-14T11:40:00;3.20;;;3.00;;
7571;SDS011;3827;49.928;8.548;2022-08-14T11:42:27;3.30;;;3.03;;
7571;SDS011;3827;49.928;8.548;2022-08-14T11:44:57;3.28;;;2.97;;
7571;SDS011;3827;49.928;8.548;2022-08-14T11:47:31;2.90;;;2.80;;
7571;SDS011;3827;49.928;8.548;2022-08-14T11:49:58;3.42;;;3.08;;
7571;SDS011;3827;49.928;8.548;2022-08-14T11:52:32;2.92;;;2.72;;
7571;SDS011;3827;49.928;8.548;2022-08-14T11:55:06;3.20;;;3.00;;
7571;SDS011;3827;49.928;8.548;2022-08-14T11:57:35;4.50;;;3.08;;
7571;SDS011;3827;49.928;8.548;2022-08-14T12:00:03;3.28;;;3.08;;
7571;SDS011;3827;49.928;8.548;2022-08-14T12:02:32;3.20;;;3.00;;
7571;SDS011;3827;49.928;8.548;2022-08-14T12:04:59;3.10;;;2.90;;
7571;SDS011;3827;49.928;8.548;2022-08-14T12:07:27;3.25;;;2.95;;
7571;SDS011;3827;49.928;8.548;2022-08-14T12:09:55;3.22;;;3.00;;
7571;SDS011;3827;49.928;8.548;2022-08-14T12:12:24;3.50;;;3.00;;
7571;SDS011;3827;49.928;8.548;2022-08-14T12:14:53;3.45;;;2.85;;
7571;SDS011;3827;49.928;8.548;2022-08-14T12:17:21;2.97;;;2.80;;
7571;SDS011;3827;49.928;8.548;2022-08-14T12:19:50;3.00;;;2.80;;
7571;SDS011;3827;49.928;8.548;2022-08-14T12:22:18;3.28;;;2.85;;
7571;SDS011;3827;49.928;8.548;2022-08-14T12:24:56;3.00;;;2.80;;
7571;SDS011;3827;49.928;8.548;2022-08-14T12:27:34;3.05;;;2.85;;
7571;SDS011;3827;49.928;8.548;2022-08-14T12:30:02;3.38;;;3.17;;
7571;SDS011;3827;49.928;8.548;2022-08-14T12:32:37;3.17;;;2.88;;
7571;SDS011;3827;49.928;8.548;2022-08-14T12:35:06;3.50;;;3.10;;
7571;SDS011;3827;49.928;8.548;2022-08-14T12:37:33;3.50;;;3.20;;
7571;SDS011;3827;49.928;8.548;2022-08-14T12:40:07;3.30;;;3.00;;
7571;SDS011;3827;49.928;8.548;2022-08-14T12:42:36;3.50;;;3.17;;
7571;SDS011;3827;49.928;8.548;2022-08-14T12:45:04;3.05;;;2.83;;
7571;SDS011;3827;49.928;8.548;2022-08-14T12:47:32;2.90;;;2.70;;
7571;SDS011;3827;49.928;8.548;2022-08-14T12:49:59;3.27;;;2.97;;
7571;SDS011;3827;49.928;8.548;2022-08-14T12:52:28;3.50;;;3.00;;
7571;SDS011;3827;49.928;8.548;2022-08-14T12:54:57;2.97;;;2.78;;
7571;SDS011;3827;49.928;8.548;2022-08-14T12:57:32;3.00;;;2.70;;
7571;SDS011;3827;49.928;8.548;2022-08-14T13:00:09;2.92;;;2.70;;
7571;SDS011;3827;49.928;8.548;2022-08-14T13:02:40;3.50;;;2.60;;
7571;SDS011;3827;49.928;8.548;2022-08-14T13:05:07;3.00;;;2.70;;
7571;SDS011;3827;49.928;8.548;2022-08-14T13:07:36;3.20;;;2.95;;
7571;SDS011;3827;49.928;8.548;2022-08-14T13:10:04;3.00;;;2.80;;
7571;SDS011;3827;49.928;8.548;2022-08-14T13:12:33;2.80;;;2.60;;
7571;SDS011;3827;49.928;8.548;2022-08-14T13:15:04;3.92;;;2.80;;
7571;SDS011;3827;49.928;8.548;2022-08-14T13:17:35;6.30;;;2.90;;
7571;SDS011;3827;49.928;8.548;2022-08-14T13:20:07;3.10;;;2.83;;
7571;SDS011;3827;49.928;8.548;2022-08-14T13:22:35;2.80;;;2.65;;
7571;SDS011;3827;49.928;8.548;2022-08-14T13:25:06;3.57;;;2.87;;
7571;SDS011;3827;49.928;8.548;2022-08-14T13:27:34;5.57;;;3.00;;
7571;SDS011;3827;49.928;8.548;2022-08-14T13:30:03;2.90;;;2.70;;
7571;SDS011;3827;49.928;8.548;2022-08-14T13:32:31;2.85;;;2.70;;
7571;SDS011;3827;49.928;8.548;2022-08-14T13:35:01;5.80;;;3.20;;
7571;SDS011;3827;49.928;8.548;2022-08-14T13:37:28;3.15;;;2.95;;
7571;SDS011;3827;49.928;8.548;2022-08-14T13:39:55;3.25;;;2.95;;
7571;SDS011;3827;49.928;8.548;2022-08-14T13:42:22;2.95;;;2.75;;
7571;SDS011;3827;49.928;8.548;2022-08-14T13:44:52;3.10;;;2.90;;
7571;SDS011;3827;49.928;8.548;2022-08-14T13:47:21;3.22;;;3.00;;
7571;SDS011;3827;49.928;8.548;2022-08-14T13:49:54;4.70;;;3.27;;
7571;SDS011;3827;49.928;8.548;2022-08-14T13:52:25;3.50;;;3.20;;
7571;SDS011;3827;49.928;8.548;2022-08-14T13:54:58;3.25;;;3.05;;
7571;SDS011;3827;49.928;8.548;2022-08-14T13:57:29;3.20;;;2.83;;
7571;SDS011;3827;49.928;8.548;2022-08-14T13:59:58;3.47;;;3.00;;
7571;SDS011;3827;49.928;8.548;2022-08-14T14:02:30;3.00;;;2.80;;
7571;SDS011;3827;49.928;8.548;2022-08-14T14:05:00;2.78;;;2.67;;
7571;SDS011;3827;49.928;8.548;2022-08-14T14:07:31;3.10;;;2.80;;
7571;SDS011;3827;49.928;8.548;2022-08-14T14:10:00;3.60;;;2.78;;
7571;SDS011;3827;49.928;8.548;2022-08-14T14:12:29;2.90;;;2.70;;
7571;SDS011;3827;49.928;8.548;2022-08-14T14:14:59;2.80;;;2.60;;
7571;SDS011;3827;49.928;8.548;2022-08-14T14:17:26;3.22;;;2.90;;
7571;SDS011;3827;49.928;8.548;2022-08-14T14:19:55;3.72;;;3.00;;
7571;SDS011;3827;49.928;8.548;2022-08-14T14:22:24;2.75;;;2.53;;
7571;SDS011;3827;49.928;8.548;2022-08-14T14:24:53;3.05;;;2.85;;
7571;SDS011;3827;49.928;8.548;2022-08-14T14:27:20;2.90;;;2.70;;
7571;SDS011;3827;49.928;8.548;2022-08-14T14:29:51;3.40;;;3.20;;
7571;SDS011;3827;49.928;8.548;2022-08-14T14:32:21;3.45;;;3.15;;
7571;SDS011;3827;49.928;8.548;2022-08-14T14:34:53;3.30;;;3.10;;
7571;SDS011;3827;49.928;8.548;2022-08-14T14:37:25;2.87;;;2.60;;
7571;SDS011;3827;49.928;8.548;2022-08-14T14:39:54;3.40;;;3.10;;
7571;SDS011;3827;49.928;8.548;2022-08-14T14:42:23;3.00;;;2.80;;
7571;SDS011;3827;49.928;8.548;2022-08-14T14:44:52;3.40;;;3.10;;
7571;SDS011;3827;49.928;8.548;2022-08-14T14:47:26;3.50;;;3.20;;
7571;SDS011;3827;49.928;8.548;2022-08-14T14:49:54;4.53;;;3.70;;
7571;SDS011;3827;49.928;8.548;2022-08-14T14:52:21;4.55;;;3.20;;
7571;SDS011;3827;49.928;8.548;2022-08-14T14:54:50;4.87;;;2.97;;
7571;SDS011;3827;49.928;8.548;2022-08-14T14:57:18;3.95;;;3.65;;
7571;SDS011;3827;49.928;8.548;2022-08-14T14:59:45;3.10;;;2.90;;
7571;SDS011;3827;49.928;8.548;2022-08-14T15:02:16;3.80;;;3.47;;
7571;SDS011;3827;49.928;8.548;2022-08-14T15:04:52;3.50;;;3.20;;
7571;SDS011;3827;49.928;8.548;2022-08-14T15:07:20;3.78;;;3.05;;
7571;SDS011;3827;49.928;8.548;2022-08-14T15:09:47;5.47;;;3.67;;
7571;SDS011;3827;49.928;8.548;2022-08-14T15:12:13;3.50;;;3.30;;
7571;SDS011;3827;49.928;8.548;2022-08-14T15:14:42;3.73;;;3.33;;
7571;SDS011;3827;49.928;8.548;2022-08-14T15:17:09;3.60;;;3.30;;
7571;SDS011;3827;49.928;8.548;2022-08-14T15:19:36;4.75;;;3.97;;
7571;SDS011;3827;49.928;8.548;2022-08-14T15:22:09;4.30;;;4.00;;
7571;SDS011;3827;49.928;8.548;2022-08-14T15:24:38;3.92;;;3.63;;